Accueil
METAR-TAF:

METAR-TAF

Aéroports :

Aéroport international de Recife

Recife, Pernambouc, Brésil

latitude: 08-08S, longitude: 034-55W, altitude: 19 m

Observation

Le bulletin a été fait il y a 20 minutes, à 04:00 UTC
Vent 9 kt de sud-est
Température 26°C
Humidité 65%
Pression 1016 hPa
Visibilité 10 km ou plus
Quelques nuages à une hauteur de 2500 ft
Nuages épars à une hauteur de 5000 ft

METAR: SBRF 230400Z 13009KT 9999 FEW025 SCT050 26/19 Q1016

Heure: 01:20 (04:20 UTC)

Prévision

Le bulletin a été fait il y a 6 heures et 20 minutes, à 22:00 UTC
Prévision valable du 23 à 00 UTC au 23 à 24 UTC
Vent 7 kt de sud-est
Visibilité: 8000 m
Nuages épars à une hauteur de 2000 ft

TAF: SBRF 222200Z 2300/2324 14007KT 8000 SCT020 TN24/2308Z TX28/2314Z RMK PCH

Observations et prévisions météorologiques de plus de 4000 aéroports (messages METAR et TAF).

Les stations disponibles sont représentées par des disques jaunes et rouges sur la carte.

Passer la souris dessus pour voir le nom de la station.

Cliquer dessus pour voir les observations et prévisions météorologiques.

Pour changer de carte: cliquez sur les boutons verts avec une croix noire pour zoomer, sur le bouton vert avec un tiret pour effectuer un zoom arrière, ou sur les flèches vertes pour les cartes adjacentes.


METAR-TAF: